Time;durP1;ratioP1;P1;durP2;ratioP2;P2;SDS_P1;SDS_P2;PMS_P1;PMS_P2;Temp;Humidity;BMP_temperature;BMP_pressure;BME280_temperature;BME280_humidity;BME280_pressure;Samples;Min_cycle;Max_cycle;Signal;HPM_P1;HPM_P2
2022/08/07 00:01:16;;;;;;;13.80;11.38;;;12.20;85.40;;;;;;5081864;28;20365;-45
2022/08/07 00:03:42;;;;;;;13.23;10.98;;;12.20;85.40;;;;;;5088771;28;20028;-43
2022/08/07 00:06:10;;;;;;;13.30;10.93;;;12.20;85.50;;;;;;5086534;28;20035;-43
2022/08/07 00:08:36;;;;;;;14.93;11.55;;;12.10;85.60;;;;;;5080461;28;20099;-48
2022/08/07 00:11:05;;;;;;;13.38;11.38;;;12.20;85.50;;;;;;5075516;28;20083;-49
2022/08/07 00:13:36;;;;;;;14.60;11.60;;;12.20;85.50;;;;;;5071690;28;20595;-44
2022/08/07 00:16:03;;;;;;;13.02;10.93;;;12.10;85.40;;;;;;5061312;28;20357;-43
2022/08/07 00:18:29;;;;;;;12.95;11.15;;;12.20;85.40;;;;;;5062906;28;20040;-47
2022/08/07 00:21:05;;;;;;;14.30;10.75;;;12.20;85.40;;;;;;5071758;28;20044;-47
2022/08/07 00:23:35;;;;;;;15.00;11.15;;;12.10;85.30;;;;;;5072144;28;20040;-45
2022/08/07 00:26:03;;;;;;;13.88;11.20;;;12.10;85.40;;;;;;5084323;28;20123;-46
2022/08/07 00:28:32;;;;;;;13.90;11.40;;;12.00;85.40;;;;;;5083185;28;20472;-44
2022/08/07 00:30:58;;;;;;;13.07;11.38;;;12.00;85.40;;;;;;5085435;28;20395;-45
2022/08/07 00:33:27;;;;;;;15.15;11.60;;;12.00;85.40;;;;;;5071956;28;20051;-44
2022/08/07 00:35:56;;;;;;;13.82;11.07;;;11.90;85.40;;;;;;5087701;28;20032;-43
2022/08/07 00:38:23;;;;;;;12.55;10.82;;;11.90;85.80;;;;;;5071067;28;20040;-43
2022/08/07 00:40:49;;;;;;;15.55;11.48;;;12.00;85.90;;;;;;5086142;28;20047;-46
2022/08/07 00:43:19;;;;;;;13.05;10.02;;;11.90;85.90;;;;;;5057050;28;20064;-47
2022/08/07 00:45:47;;;;;;;13.30;11.38;;;11.90;86.00;;;;;;5056430;28;20028;-47
2022/08/07 00:48:13;;;;;;;13.80;10.82;;;11.90;86.10;;;;;;5070826;28;20026;-45
2022/08/07 00:50:42;;;;;;;14.68;11.52;;;11.90;86.20;;;;;;5065665;28;20017;-43
2022/08/07 00:53:08;;;;;;;14.43;11.15;;;11.90;86.10;;;;;;5048471;28;20076;-46
2022/08/07 00:55:36;;;;;;;14.38;10.85;;;11.90;86.10;;;;;;5070552;28;20105;-43
2022/08/07 00:58:02;;;;;;;13.07;10.82;;;11.90;86.00;;;;;;5070671;28;20032;-45
2022/08/07 01:00:28;;;;;;;14.07;12.02;;;11.90;85.80;;;;;;5069052;28;20036;-45
2022/08/07 01:02:54;;;;;;;13.63;11.05;;;11.80;85.70;;;;;;5069133;28;20033;-44
2022/08/07 01:05:25;;;;;;;16.00;11.02;;;11.70;86.20;;;;;;5070736;28;20036;-46
2022/08/07 01:07:50;;;;;;;13.18;10.75;;;11.70;86.20;;;;;;5065628;28;20036;-45
2022/08/07 01:10:19;;;;;;;11.80;10.38;;;11.70;85.90;;;;;;5069507;28;20029;-47
2022/08/07 01:12:45;;;;;;;14.10;10.73;;;11.70;86.00;;;;;;5068598;28;20033;-44
2022/08/07 01:15:12;;;;;;;13.35;10.50;;;11.70;85.90;;;;;;5065499;28;20032;-44
2022/08/07 01:17:38;;;;;;;14.80;11.82;;;11.70;85.90;;;;;;5032657;28;20083;-44
2022/08/07 01:20:12;;;;;;;11.27;10.10;;;11.70;85.80;;;;;;5051693;28;20033;-46
2022/08/07 01:22:39;;;;;;;10.93;9.52;;;11.70;85.80;;;;;;5050418;28;20446;-43
2022/08/07 01:25:07;;;;;;;12.55;10.43;;;11.70;85.90;;;;;;5068747;28;20550;-44
2022/08/07 01:27:32;;;;;;;14.25;11.00;;;11.60;85.80;;;;;;5058823;28;20118;-43
2022/08/07 01:29:59;;;;;;;13.10;9.75;;;11.70;86.00;;;;;;5057181;28;20052;-45
2022/08/07 01:32:25;;;;;;;12.43;10.90;;;11.70;86.10;;;;;;5069109;28;20039;-47
2022/08/07 01:34:51;;;;;;;12.43;10.15;;;11.60;86.30;;;;;;5056801;28;20115;-46
2022/08/07 01:37:17;;;;;;;12.15;10.45;;;11.60;86.50;;;;;;5063464;28;20374;-46
2022/08/07 01:39:44;;;;;;;12.48;10.40;;;11.60;86.60;;;;;;5067419;28;20453;-44
2022/08/07 01:42:13;;;;;;;13.15;11.00;;;11.60;86.60;;;;;;5065724;28;20410;-43
2022/08/07 01:44:46;;;;;;;13.68;10.50;;;11.60;86.40;;;;;;5083766;28;20111;-44
2022/08/07 01:47:12;;;;;;;14.20;11.25;;;11.60;86.50;;;;;;5086381;28;20016;-43
2022/08/07 01:49:40;;;;;;;16.73;10.82;;;11.50;86.60;;;;;;5072393;28;20498;-48
2022/08/07 01:52:11;;;;;;;14.55;11.05;;;11.60;86.70;;;;;;5090514;28;20028;-45
2022/08/07 01:54:42;;;;;;;11.55;9.68;;;11.60;86.60;;;;;;5085996;28;20032;-46
2022/08/07 01:57:22;;;;;;;14.75;11.40;;;11.60;86.50;;;;;;5073364;28;20040;-46
2022/08/07 01:59:53;;;;;;;12.15;10.57;;;11.60;86.50;;;;;;5082910;28;20024;-47
2022/08/07 02:02:45;;;;;;;12.27;10.68;;;11.50;86.60;;;;;;5087951;28;20443;-43
2022/08/07 02:05:22;;;;;;;11.18;9.20;;;11.50;86.50;;;;;;5068176;28;20032;-45
2022/08/07 02:07:52;;;;;;;14.15;10.32;;;11.50;86.80;;;;;;5081113;28;20020;-44
2022/08/07 02:10:23;;;;;;;12.63;10.10;;;11.50;86.90;;;;;;5071459;28;20028;-42
2022/08/07 02:12:50;;;;;;;12.13;10.75;;;11.50;86.80;;;;;;5079093;28;20122;-42
2022/08/07 02:15:21;;;;;;;11.55;9.77;;;11.50;86.80;;;;;;5080808;28;20038;-46
2022/08/07 02:17:48;;;;;;;11.00;9.25;;;11.50;86.80;;;;;;5070713;28;20345;-46
2022/08/07 02:20:15;;;;;;;11.60;9.43;;;11.50;86.60;;;;;;5055979;28;20126;-45
2022/08/07 02:22:41;;;;;;;10.55;9.05;;;11.50;86.70;;;;;;5067866;28;20071;-44
2022/08/07 02:25:09;;;;;;;10.82;9.30;;;11.40;86.50;;;;;;5054549;28;20392;-45
2022/08/07 02:27:36;;;;;;;11.90;8.95;;;11.40;86.50;;;;;;5088598;28;20021;-42
2022/08/07 02:30:04;;;;;;;13.88;9.48;;;11.40;86.60;;;;;;5075462;28;20032;-44
2022/08/07 02:32:32;;;;;;;11.60;9.75;;;11.40;86.50;;;;;;5070555;28;20105;-43
2022/08/07 02:34:59;;;;;;;14.20;9.50;;;11.40;86.50;;;;;;5087572;28;20036;-43
2022/08/07 02:37:26;;;;;;;11.07;9.20;;;11.40;86.60;;;;;;5080107;28;20048;-43
2022/08/07 02:39:55;;;;;;;13.00;10.05;;;11.40;86.60;;;;;;5069150;28;20029;-43
2022/08/07 02:42:21;;;;;;;13.02;10.18;;;11.40;86.80;;;;;;5085274;28;20489;-43
2022/08/07 02:44:52;;;;;;;12.07;9.95;;;11.40;86.90;;;;;;5065683;28;20024;-43
2022/08/07 02:47:18;;;;;;;13.88;10.40;;;11.40;86.80;;;;;;5070698;28;20029;-43
2022/08/07 02:49:44;;;;;;;14.77;10.43;;;11.40;87.00;;;;;;5069910;28;20025;-44
2022/08/07 02:52:14;;;;;;;13.55;10.82;;;11.40;86.90;;;;;;5061172;28;20032;-43
2022/08/07 02:54:44;;;;;;;13.50;10.18;;;11.40;86.90;;;;;;5088922;28;20094;-43
2022/08/07 02:57:15;;;;;;;12.23;10.93;;;11.40;87.00;;;;;;5068961;28;20098;-42
2022/08/07 02:59:49;;;;;;;14.07;11.80;;;11.40;87.10;;;;;;5084680;28;20028;-44
2022/08/07 03:02:15;;;;;;;14.82;11.40;;;11.40;87.30;;;;;;5051686;28;20036;-42
2022/08/07 03:04:43;;;;;;;14.40;11.73;;;11.40;87.30;;;;;;5068577;28;20338;-43
2022/08/07 03:07:12;;;;;;;15.48;11.40;;;11.40;87.20;;;;;;5086903;28;20029;-42
2022/08/07 03:09:41;;;;;;;20.15;13.52;;;11.40;87.10;;;;;;5088293;28;20040;-43
2022/08/07 03:12:08;;;;;;;16.35;12.10;;;11.40;87.20;;;;;;5072817;28;20032;-43
2022/08/07 03:14:35;;;;;;;16.40;12.48;;;11.50;87.20;;;;;;5056514;28;20037;-45
2022/08/07 03:17:02;;;;;;;14.35;11.73;;;11.50;87.00;;;;;;5072337;28;20035;-42
2022/08/07 03:19:29;;;;;;;13.77;11.00;;;11.40;86.90;;;;;;5086051;28;20467;-43
2022/08/07 03:21:55;;;;;;;15.63;12.20;;;11.40;86.80;;;;;;5072412;28;20044;-43
2022/08/07 03:24:21;;;;;;;16.95;12.00;;;11.40;86.90;;;;;;5054706;28;20024;-43
2022/08/07 03:26:50;;;;;;;14.73;12.27;;;11.50;86.80;;;;;;5081935;28;20441;-45
2022/08/07 03:29:17;;;;;;;14.27;12.25;;;11.40;86.80;;;;;;5090856;28;20059;-43
2022/08/07 03:31:45;;;;;;;14.88;11.80;;;11.40;86.80;;;;;;5088095;28;20047;-42
2022/08/07 03:34:13;;;;;;;16.25;12.32;;;11.40;86.90;;;;;;5090719;28;20056;-42
2022/08/07 03:36:39;;;;;;;17.85;13.23;;;11.40;87.00;;;;;;5065956;28;20112;-44
2022/08/07 03:39:10;;;;;;;14.98;12.05;;;11.30;87.10;;;;;;5073321;28;20035;-43
2022/08/07 03:41:37;;;;;;;14.88;12.43;;;11.30;87.10;;;;;;5088405;28;20032;-42
2022/08/07 03:44:03;;;;;;;16.27;12.82;;;11.30;87.20;;;;;;5089990;28;20384;-44
2022/08/07 03:46:33;;;;;;;16.65;12.77;;;11.30;87.30;;;;;;5079743;28;20455;-42
2022/08/07 03:48:58;;;;;;;14.68;12.85;;;11.40;87.30;;;;;;5084794;28;20449;-43
2022/08/07 03:51:28;;;;;;;18.02;13.23;;;11.30;87.30;;;;;;5086339;28;20028;-43
2022/08/07 03:53:54;;;;;;;13.95;12.00;;;11.30;87.30;;;;;;5089558;28;20036;-43
2022/08/07 03:56:22;;;;;;;17.55;13.13;;;11.30;87.10;;;;;;5056531;28;20055;-43
2022/08/07 03:58:48;;;;;;;16.88;13.60;;;11.20;87.20;;;;;;5075333;28;20027;-43
2022/08/07 04:01:16;;;;;;;15.13;12.43;;;11.20;87.20;;;;;;5054763;28;20024;-43
2022/08/07 04:03:42;;;;;;;14.93;12.05;;;11.20;87.50;;;;;;5058337;28;20505;-42
2022/08/07 04:06:09;;;;;;;16.05;12.00;;;11.30;87.60;;;;;;5091657;28;20024;-42
2022/08/07 04:08:38;;;;;;;14.80;12.43;;;11.40;87.60;;;;;;5065324;28;20031;-42
2022/08/07 04:11:04;;;;;;;14.98;12.50;;;11.40;87.40;;;;;;5069935;28;20031;-42
2022/08/07 04:13:31;;;;;;;16.70;12.07;;;11.40;87.20;;;;;;5077126;28;20096;-43
2022/08/07 04:15:57;;;;;;;15.68;10.90;;;11.40;87.30;;;;;;5080938;28;20467;-43
2022/08/07 04:18:23;;;;;;;14.73;11.77;;;11.40;87.00;;;;;;5053812;28;20510;-44
2022/08/07 04:20:49;;;;;;;15.77;11.48;;;11.40;86.90;;;;;;5056839;28;20029;-43
2022/08/07 04:23:15;;;;;;;16.05;13.00;;;11.40;87.00;;;;;;5081251;28;20036;-42
2022/08/07 04:25:42;;;;;;;14.27;11.57;;;11.40;87.00;;;;;;5088498;28;20040;-42
2022/08/07 04:28:11;;;;;;;17.00;12.70;;;11.40;86.90;;;;;;5087540;28;20368;-42
2022/08/07 04:30:40;;;;;;;15.75;12.63;;;11.40;87.00;;;;;;5055705;28;20020;-42
2022/08/07 04:33:13;;;;;;;15.80;12.52;;;11.40;87.00;;;;;;5076782;28;20045;-43
2022/08/07 04:35:41;;;;;;;15.63;12.05;;;11.40;87.30;;;;;;5082041;28;20717;-43
2022/08/07 04:38:12;;;;;;;15.35;12.20;;;11.40;87.50;;;;;;5071024;28;20533;-42
2022/08/07 04:40:40;;;;;;;15.40;10.75;;;11.40;87.50;;;;;;5087455;28;20032;-42
2022/08/07 04:43:06;;;;;;;16.73;12.77;;;11.40;87.50;;;;;;5091194;28;20050;-42
2022/08/07 04:45:48;;;;;;;13.98;11.65;;;11.40;87.40;;;;;;5077931;28;20020;-43
2022/08/07 04:48:28;;;;;;;16.48;12.68;;;11.50;87.40;;;;;;5087715;28;20125;-42
2022/08/07 04:51:29;;;;;;;16.13;11.73;;;11.50;87.30;;;;;;5077287;28;20337;-43
2022/08/07 04:54:24;;;;;;;15.07;12.35;;;11.50;87.40;;;;;;5057620;28;20351;-43
2022/08/07 04:57:06;;;;;;;15.18;12.23;;;11.60;87.60;;;;;;5058355;28;20042;-43
2022/08/07 04:59:47;;;;;;;16.88;12.10;;;11.60;87.60;;;;;;5111278;28;20138;-41
2022/08/07 05:02:27;;;;;;;17.02;13.52;;;11.60;87.80;;;;;;5075698;28;20020;-43
2022/08/07 05:04:59;;;;;;;15.15;12.52;;;11.70;87.80;;;;;;5081591;28;20031;-42
2022/08/07 05:07:35;;;;;;;15.68;13.48;;;11.70;87.80;;;;;;5090990;28;20016;-43
2022/08/07 05:10:04;;;;;;;15.85;13.27;;;11.70;87.70;;;;;;5073391;28;20438;-42
2022/08/07 05:13:05;;;;;;;15.60;12.32;;;11.70;87.90;;;;;;5090890;28;20032;-43
2022/08/07 05:15:36;;;;;;;16.90;13.43;;;11.80;87.80;;;;;;5059852;28;20043;-43
2022/08/07 05:18:17;;;;;;;15.63;13.40;;;11.90;87.70;;;;;;5070933;28;20033;-43
2022/08/07 05:20:49;;;;;;;17.35;13.20;;;11.90;87.70;;;;;;5074991;28;20117;-42
2022/08/07 05:23:39;;;;;;;16.42;14.18;;;12.10;87.40;;;;;;5077540;28;20040;-42
2022/08/07 05:26:12;;;;;;;16.80;12.77;;;12.20;87.40;;;;;;5067873;28;20028;-42
2022/08/07 05:28:39;;;;;;;14.77;12.50;;;12.20;87.20;;;;;;5089104;28;20031;-42
2022/08/07 05:31:10;;;;;;;16.30;12.40;;;12.30;87.10;;;;;;5081608;28;20104;-43
2022/08/07 05:33:37;;;;;;;17.15;12.13;;;12.30;87.10;;;;;;5053471;28;20521;-42
2022/08/07 05:36:06;;;;;;;17.17;13.13;;;12.40;87.10;;;;;;5085057;28;20053;-42
2022/08/07 05:38:33;;;;;;;13.38;11.98;;;12.50;87.10;;;;;;5088486;28;20043;-42
2022/08/07 05:41:00;;;;;;;16.52;12.93;;;12.60;86.80;;;;;;5084429;28;20024;-42
2022/08/07 05:43:26;;;;;;;17.17;12.73;;;12.70;86.80;;;;;;5076594;28;20059;-42
2022/08/07 05:45:52;;;;;;;18.30;13.73;;;12.80;86.80;;;;;;5070223;28;20028;-42
2022/08/07 05:48:19;;;;;;;14.52;12.15;;;12.90;86.70;;;;;;5072713;28;20023;-42
2022/08/07 05:50:48;;;;;;;17.08;13.32;;;13.10;86.60;;;;;;5077829;28;20031;-42
2022/08/07 05:53:14;;;;;;;16.05;12.75;;;13.20;86.50;;;;;;5105588;28;20028;-43
2022/08/07 05:55:43;;;;;;;18.25;13.05;;;13.30;86.40;;;;;;5108183;28;20105;-43
2022/08/07 05:58:11;;;;;;;17.30;14.10;;;13.40;86.40;;;;;;5089891;28;20030;-42
2022/08/07 06:00:38;;;;;;;15.40;13.48;;;13.40;85.90;;;;;;5058827;28;20032;-42
2022/08/07 06:03:07;;;;;;;14.23;12.73;;;13.50;86.20;;;;;;5087984;28;20028;-43
2022/08/07 06:05:33;;;;;;;17.85;13.88;;;13.60;86.20;;;;;;5078838;28;20020;-42
2022/08/07 06:08:00;;;;;;;17.98;14.55;;;13.70;86.20;;;;;;5054737;28;20372;-44
2022/08/07 06:10:29;;;;;;;18.00;14.00;;;13.80;86.20;;;;;;5077558;28;20021;-44
2022/08/07 06:12:55;;;;;;;16.80;13.63;;;13.80;86.00;;;;;;5056683;28;20028;-42
2022/08/07 06:15:22;;;;;;;14.77;11.88;;;13.90;86.20;;;;;;5052837;28;20036;-43
2022/08/07 06:17:50;;;;;;;17.17;15.30;;;13.90;86.00;;;;;;5069280;28;20469;-42
2022/08/07 06:20:18;;;;;;;15.68;13.40;;;13.90;85.90;;;;;;5070820;28;20044;-45
2022/08/07 06:22:46;;;;;;;13.98;11.30;;;13.90;85.90;;;;;;5065204;28;20032;-43
2022/08/07 06:25:12;;;;;;;16.70;14.05;;;14.00;85.70;;;;;;5054777;28;20082;-44
2022/08/07 06:27:40;;;;;;;17.52;13.02;;;14.20;85.80;;;;;;5081823;28;20032;-44
2022/08/07 06:30:07;;;;;;;15.27;13.68;;;14.20;85.80;;;;;;5058239;28;20354;-44
2022/08/07 06:32:32;;;;;;;17.45;11.73;;;14.30;85.70;;;;;;5088554;28;20091;-43
2022/08/07 06:35:01;;;;;;;13.80;12.27;;;14.40;85.70;;;;;;5084516;28;20103;-44
2022/08/07 06:37:27;;;;;;;15.38;12.63;;;14.40;85.20;;;;;;5072319;28;20434;-42
2022/08/07 06:39:52;;;;;;;14.88;12.20;;;14.50;84.80;;;;;;5087507;28;20056;-43
2022/08/07 06:42:24;;;;;;;16.08;11.70;;;14.60;84.50;;;;;;5060859;28;20083;-43
2022/08/07 06:44:55;;;;;;;13.65;11.70;;;14.70;84.20;;;;;;5069231;28;20045;-45
2022/08/07 06:47:23;;;;;;;13.75;10.85;;;14.80;84.00;;;;;;5086313;28;20348;-42
2022/08/07 06:49:49;;;;;;;16.30;11.63;;;14.90;83.60;;;;;;5068326;28;20342;-46
2022/08/07 06:52:19;;;;;;;12.27;10.00;;;15.00;82.80;;;;;;5085455;28;20073;-43
2022/08/07 06:54:48;;;;;;;13.13;10.43;;;15.10;82.70;;;;;;5087800;28;20040;-43
2022/08/07 06:57:14;;;;;;;11.38;10.18;;;15.30;82.50;;;;;;5087872;28;20036;-44
2022/08/07 06:59:44;;;;;;;12.20;9.93;;;15.40;82.00;;;;;;5069782;28;20032;-43
2022/08/07 07:02:22;;;;;;;;;;;15.40;81.10;;;;;;5088254;28;20089;-43
2022/08/07 07:04:48;;;;;;;13.02;9.60;;;15.40;80.40;;;;;;5067593;28;19915;-43
2022/08/07 07:07:14;;;;;;;13.90;10.80;;;15.40;81.00;;;;;;5087081;28;20017;-43
2022/08/07 07:09:50;;;;;;;10.93;7.53;;;15.60;80.90;;;;;;5085334;28;20020;-44
2022/08/07 07:12:24;;;;;;;9.98;7.35;;;15.70;80.40;;;;;;5083841;28;20033;-43
2022/08/07 07:14:59;;;;;;;10.55;7.57;;;15.90;80.10;;;;;;5087189;28;20028;-44
2022/08/07 07:17:40;;;;;;;9.07;7.18;;;15.90;79.00;;;;;;5068627;28;20114;-44
2022/08/07 07:20:14;;;;;;;13.85;7.47;;;16.20;78.40;;;;;;5084601;28;20028;-43
2022/08/07 07:22:42;;;;;;;8.68;7.28;;;16.40;78.70;;;;;;5084474;28;20032;-44
2022/08/07 07:25:09;;;;;;;7.45;6.28;;;16.70;76.90;;;;;;5056122;28;20060;-44
2022/08/07 07:27:41;;;;;;;19.95;6.88;;;17.20;75.40;;;;;;5078066;28;20038;-44
2022/08/07 07:30:08;;;;;;;11.45;7.22;;;17.40;73.80;;;;;;5070357;28;20074;-44
2022/08/07 07:32:39;;;;;;;7.60;6.35;;;17.40;72.80;;;;;;5070821;28;20023;-45
2022/08/07 07:35:12;;;;;;;11.50;7.47;;;17.40;73.70;;;;;;5068603;28;20028;-45
2022/08/07 07:37:42;;;;;;;7.38;6.05;;;17.30;74.00;;;;;;5065823;28;20082;-47
2022/08/07 07:40:15;;;;;;;8.18;6.25;;;17.40;73.90;;;;;;5087336;28;20484;-45
2022/08/07 07:42:42;;;;;;;7.88;6.00;;;17.80;73.50;;;;;;5069663;28;20127;-45
2022/08/07 07:45:10;;;;;;;9.45;6.70;;;18.30;71.20;;;;;;5084855;28;20036;-45
2022/08/07 07:47:40;;;;;;;6.55;5.20;;;18.50;69.70;;;;;;5087450;28;20024;-47
2022/08/07 07:50:07;;;;;;;;;;;18.90;68.30;;;;;;5075978;28;20366;-48
2022/08/07 07:52:35;;;;;;;6.72;5.18;;;18.90;67.80;;;;;;5090314;28;19916;-46
2022/08/07 07:55:04;;;;;;;9.45;4.57;;;19.30;67.00;;;;;;5083376;28;20052;-46
2022/08/07 07:57:32;;;;;;;4.93;4.30;;;19.40;66.10;;;;;;5088971;28;20553;-46
2022/08/07 08:00:00;;;;;;;7.38;4.20;;;19.40;65.80;;;;;;5084362;28;20039;-49
2022/08/07 08:02:28;;;;;;;5.22;4.32;;;19.90;65.10;;;;;;5089325;28;20032;-49
2022/08/07 08:04:55;;;;;;;5.10;3.92;;;19.80;64.30;;;;;;5075702;28;20039;-46
2022/08/07 08:07:23;;;;;;;5.22;3.30;;;20.00;64.40;;;;;;5071606;28;20028;-46
2022/08/07 08:09:51;;;;;;;5.88;4.20;;;20.10;61.20;;;;;;5085658;28;20111;-47
2022/08/07 08:12:18;;;;;;;4.35;3.42;;;20.30;63.60;;;;;;5086376;28;20103;-47
2022/08/07 08:14:43;;;;;;;4.57;3.55;;;20.80;60.80;;;;;;5091300;28;20031;-47
2022/08/07 08:17:11;;;;;;;4.40;3.30;;;20.60;58.70;;;;;;5084193;28;20047;-47
2022/08/07 08:19:39;;;;;;;5.03;3.70;;;20.60;60.30;;;;;;5075811;28;20064;-46
2022/08/07 08:27:40;;;;;;;5.13;3.80;;;21.20;59.30;;;;;;5072594;28;20078;-47
2022/08/07 08:30:08;;;;;;;5.50;3.58;;;21.40;57.30;;;;;;5071568;28;20032;-47
2022/08/07 08:32:55;;;;;;;4.82;3.47;;;21.70;60.00;;;;;;5091035;28;20043;-52
2022/08/07 08:35:26;;;;;;;6.95;3.13;;;21.60;57.10;;;;;;5088217;28;20028;-47
2022/08/07 08:37:57;;;;;;;5.72;3.50;;;21.90;59.00;;;;;;5088619;28;20043;-47
2022/08/07 08:40:31;;;;;;;3.90;3.30;;;21.90;58.60;;;;;;5087625;28;20077;-48
2022/08/07 08:43:17;;;;;;;5.70;3.78;;;21.50;55.70;;;;;;5068372;28;20450;-51
2022/08/07 08:45:56;;;;;;;5.68;3.40;;;21.70;55.30;;;;;;5066240;28;20020;-49
2022/08/07 08:48:47;;;;;;;5.45;3.50;;;21.60;56.50;;;;;;5066756;28;20372;-48
2022/08/07 08:51:17;;;;;;;4.03;3.05;;;21.40;56.20;;;;;;5068998;28;20028;-48
2022/08/07 08:53:55;;;;;;;9.02;3.85;;;21.60;56.30;;;;;;5062508;28;20165;-47
2022/08/07 08:56:25;;;;;;;4.82;3.60;;;21.20;56.60;;;;;;5064658;28;20097;-47
2022/08/07 08:58:58;;;;;;;4.40;3.28;;;20.80;57.00;;;;;;5069952;28;20067;-48
2022/08/07 09:01:56;;;;;;;4.55;3.53;;;20.40;60.50;;;;;;5060709;28;20032;-46
2022/08/07 09:04:32;;;;;;;5.68;4.05;;;20.70;58.80;;;;;;5063234;28;20386;-46
2022/08/07 09:07:01;;;;;;;4.78;3.67;;;20.70;57.40;;;;;;5069416;28;20031;-48
2022/08/07 09:09:44;;;;;;;4.65;3.63;;;21.20;58.70;;;;;;5069798;28;20098;-47
2022/08/07 09:12:22;;;;;;;4.05;3.20;;;21.70;56.10;;;;;;5066382;28;20039;-47
2022/08/07 09:15:02;;;;;;;5.93;3.53;;;21.50;57.00;;;;;;5064125;28;20020;-47
2022/08/07 09:17:43;;;;;;;5.20;4.03;;;21.40;57.50;;;;;;5069486;28;20044;-49
2022/08/07 09:20:19;;;;;;;4.63;3.70;;;21.50;56.10;;;;;;5053384;28;20072;-49
2022/08/07 09:23:03;;;;;;;5.78;4.35;;;21.60;58.20;;;;;;5069722;28;20535;-48
2022/08/07 09:25:40;;;;;;;8.60;3.92;;;21.50;55.50;;;;;;5065680;28;20579;-48
2022/08/07 09:28:08;;;;;;;4.97;3.70;;;21.30;56.40;;;;;;5058487;28;20396;-47
2022/08/07 09:30:43;;;;;;;4.22;3.80;;;20.90;57.30;;;;;;5057243;28;20029;-47
2022/08/07 09:33:36;;;;;;;4.68;3.45;;;21.20;59.10;;;;;;5082894;28;20036;-49
2022/08/07 09:36:21;;;;;;;6.75;4.22;;;21.40;56.90;;;;;;5069697;28;20025;-49
2022/08/07 09:39:04;;;;;;;8.00;3.50;;;21.10;57.00;;;;;;5065848;28;20029;-50
2022/08/07 09:41:36;;;;;;;5.20;3.60;;;20.90;57.10;;;;;;5066052;28;20032;-47
2022/08/07 09:44:10;;;;;;;6.05;3.22;;;20.80;56.70;;;;;;5074640;28;20097;-47
2022/08/07 09:46:54;;;;;;;5.50;3.70;;;20.70;57.70;;;;;;5087858;28;20085;-50
2022/08/07 09:49:56;;;;;;;4.57;3.72;;;20.70;57.50;;;;;;5061811;28;20024;-47
2022/08/07 09:52:33;;;;;;;5.35;3.95;;;20.70;59.20;;;;;;5083352;28;20337;-47
2022/08/07 09:55:12;;;;;;;6.35;3.92;;;20.60;60.70;;;;;;5056476;28;20028;-52
2022/08/07 09:57:59;;;;;;;6.75;3.92;;;20.50;59.80;;;;;;5077868;28;20032;-47
2022/08/07 10:00:53;;;;;;;7.20;3.65;;;20.80;59.00;;;;;;5081888;28;20028;-47
2022/08/07 10:03:36;;;;;;;5.43;3.38;;;20.60;57.70;;;;;;5078047;28;20465;-47
2022/08/07 10:06:44;;;;;;;5.10;4.15;;;20.00;58.40;;;;;;5069624;28;20158;-46
2022/08/07 10:09:39;;;;;;;4.72;3.33;;;19.80;59.30;;;;;;5078160;28;20373;-46
2022/08/07 10:12:09;;;;;;;4.20;3.00;;;20.20;59.90;;;;;;5073150;28;20437;-47
2022/08/07 10:15:00;;;;;;;5.00;3.55;;;21.10;56.80;;;;;;5088670;28;20415;-49
2022/08/07 10:17:56;;;;;;;4.65;3.50;;;21.60;55.00;;;;;;5071147;28;20020;-47
2022/08/07 10:20:55;;;;;;;5.03;3.40;;;22.30;55.80;;;;;;5077360;28;20169;-48
2022/08/07 10:23:33;;;;;;;5.13;3.38;;;22.60;52.10;;;;;;5071010;28;20111;-47
2022/08/07 10:26:17;;;;;;;4.88;3.58;;;22.90;51.30;;;;;;5071858;28;20031;-47
2022/08/07 10:29:07;;;;;;;7.68;2.80;;;22.90;49.60;;;;;;5085473;28;20476;-48
2022/08/07 10:31:48;;;;;;;3.30;2.58;;;23.30;50.00;;;;;;5076919;28;20331;-49
2022/08/07 10:34:37;;;;;;;6.57;2.95;;;23.30;50.20;;;;;;5052796;28;20119;-51
2022/08/07 10:37:26;;;;;;;3.83;2.67;;;23.60;50.50;;;;;;5069152;28;20024;-48
2022/08/07 10:40:13;;;;;;;;;;;23.70;48.30;;;;;;5069113;28;20027;-49
2022/08/07 10:43:05;;;;;;;3.28;2.53;;;23.80;46.60;;;;;;5088175;28;19912;-50
2022/08/07 10:45:37;;;;;;;3.97;2.78;;;23.30;48.70;;;;;;5057824;28;20039;-48
2022/08/07 10:48:23;;;;;;;4.35;3.03;;;23.30;49.00;;;;;;5089442;28;20027;-49
2022/08/07 10:50:56;;;;;;;5.38;2.75;;;23.00;48.40;;;;;;5051838;28;20495;-50
2022/08/07 10:53:40;;;;;;;5.13;3.22;;;23.30;51.40;;;;;;5082861;28;20089;-47
2022/08/07 10:56:35;;;;;;;4.65;2.92;;;23.20;49.70;;;;;;5077342;28;20485;-48
2022/08/07 10:59:29;;;;;;;6.15;2.60;;;22.90;50.20;;;;;;5083352;28;20047;-47
2022/08/07 11:02:01;;;;;;;2.95;2.28;;;22.90;47.80;;;;;;5067279;28;20035;-47
2022/08/07 11:04:51;;;;;;;3.30;2.22;;;23.00;45.90;;;;;;5087134;28;20060;-50
2022/08/07 11:07:49;;;;;;;3.40;2.33;;;22.80;46.60;;;;;;5086054;28;20073;-51
2022/08/07 11:10:42;;;;;;;3.67;2.67;;;23.30;48.90;;;;;;5084095;28;20112;-49
2022/08/07 11:13:36;;;;;;;4.80;3.10;;;23.40;45.40;;;;;;5082809;28;20040;-48
2022/08/07 11:16:52;;;;;;;4.25;2.80;;;23.70;46.10;;;;;;5082850;28;20024;-47
2022/08/07 11:19:37;;;;;;;4.32;3.03;;;23.50;48.50;;;;;;5065680;28;20111;-51
2022/08/07 11:22:28;;;;;;;4.45;2.95;;;23.50;46.70;;;;;;5068362;28;20023;-47
2022/08/07 11:25:23;;;;;;;5.75;2.67;;;23.30;48.50;;;;;;5089808;28;20028;-47
2022/08/07 11:28:31;;;;;;;4.22;3.00;;;22.90;49.60;;;;;;5070984;28;20040;-47
2022/08/07 11:31:30;;;;;;;4.03;2.80;;;22.60;47.50;;;;;;5002880;28;20033;-47
2022/08/07 11:34:27;;;;;;;4.22;2.33;;;23.10;51.10;;;;;;4998469;28;20041;-47
2022/08/07 11:36:58;;;;;;;3.28;2.40;;;23.50;46.20;;;;;;4992089;28;20113;-49
2022/08/07 11:39:37;;;;;;;3.55;2.35;;;23.30;47.30;;;;;;5008249;28;20034;-52
2022/08/07 11:42:32;;;;;;;4.13;2.97;;;22.80;47.50;;;;;;5008771;28;20038;-48
2022/08/07 11:45:12;;;;;;;3.78;2.42;;;22.40;48.60;;;;;;4991286;28;20497;-47
2022/08/07 11:47:49;;;;;;;;;;;22.00;49.40;;;;;;5009954;28;20045;-47
2022/08/07 11:50:53;;;;;;;3.75;2.60;;;21.80;49.20;;;;;;5006068;28;20389;-48
2022/08/07 11:53:27;;;;;;;5.75;3.30;;;21.90;50.00;;;;;;4995238;28;20137;-50
2022/08/07 11:56:34;;;;;;;4.22;2.80;;;22.30;51.90;;;;;;5008480;28;20100;-48
2022/08/07 11:59:24;;;;;;;5.38;2.50;;;23.00;49.60;;;;;;4996465;28;20038;-49
2022/08/07 12:02:11;;;;;;;3.80;2.70;;;23.20;49.30;;;;;;5027547;28;20112;-47
2022/08/07 12:05:02;;;;;;;14.10;3.63;;;23.90;53.20;;;;;;5078918;28;20460;-48
2022/08/07 12:07:39;;;;;;;4.30;3.50;;;24.50;53.90;;;;;;5080655;28;20024;-47
2022/08/07 12:10:29;;;;;;;5.30;3.40;;;24.20;55.10;;;;;;5090882;28;20056;-47
2022/08/07 12:13:32;;;;;;;11.15;4.22;;;23.40;55.70;;;;;;5055016;28;20103;-52
2022/08/07 12:16:05;;;;;;;6.78;3.40;;;22.90;56.80;;;;;;5084497;28;20028;-48
2022/08/07 12:19:07;;;;;;;7.00;3.50;;;22.40;58.90;;;;;;5072061;28;20036;-49
2022/08/07 12:22:11;;;;;;;4.95;3.80;;;21.90;56.90;;;;;;5071617;28;20118;-47
2022/08/07 12:27:58;;;;;;;6.15;4.30;;;21.50;60.50;;;;;;5055988;28;20055;-48
2022/08/07 12:30:32;;;;;;;7.75;3.80;;;21.40;62.70;;;;;;5072565;28;20109;-48
2022/08/07 12:33:04;;;;;;;5.80;3.22;;;21.20;63.90;;;;;;5086142;28;20456;-47
2022/08/07 12:35:39;;;;;;;5.53;3.92;;;20.90;64.40;;;;;;5087672;28;20043;-47
2022/08/07 12:38:07;;;;;;;8.57;3.80;;;20.90;65.50;;;;;;5061789;28;20050;-50
2022/08/07 12:40:36;;;;;;;8.05;4.40;;;21.10;66.80;;;;;;5089636;28;20031;-47
2022/08/07 12:43:06;;;;;;;6.18;3.35;;;21.20;65.70;;;;;;5089934;28;20036;-46
2022/08/07 12:45:40;;;;;;;5.83;3.33;;;21.40;68.00;;;;;;5064813;28;20028;-47
2022/08/07 12:48:15;;;;;;;9.15;4.72;;;21.60;66.60;;;;;;5064489;28;20282;-47
2022/08/07 12:51:03;;;;;;;8.48;4.38;;;21.50;64.60;;;;;;5072050;28;20028;-48
2022/08/07 12:53:36;;;;;;;11.45;4.70;;;21.40;66.00;;;;;;5086543;28;20044;-47
2022/08/07 12:56:18;;;;;;;8.32;4.35;;;21.40;66.30;;;;;;5082892;28;20178;-48
2022/08/07 12:58:48;;;;;;;10.23;5.32;;;21.60;67.00;;;;;;5056861;28;20117;-47
2022/08/07 13:02:14;;;;;;;9.73;4.57;;;21.90;65.10;;;;;;5061668;28;20462;-48
2022/08/07 13:05:06;;;;;;;9.20;4.38;;;21.90;66.40;;;;;;4978556;28;20093;-49
2022/08/07 13:08:05;;;;;;;7.93;3.78;;;21.80;64.70;;;;;;5076765;28;20024;-51
2022/08/07 13:11:01;;;;;;;6.53;4.00;;;21.80;67.40;;;;;;5069687;28;20051;-47
2022/08/07 13:13:43;;;;;;;6.07;3.95;;;21.60;64.30;;;;;;5070775;28;20445;-50
2022/08/07 13:16:31;;;;;;;5.72;4.43;;;21.40;67.20;;;;;;5062857;28;20028;-48
2022/08/07 13:19:07;;;;;;;5.40;3.95;;;21.60;66.60;;;;;;5076872;28;20396;-50
2022/08/07 13:21:43;;;;;;;10.15;4.53;;;21.40;66.20;;;;;;5078457;28;20057;-48
2022/08/07 13:24:34;;;;;;;6.50;4.03;;;21.20;67.20;;;;;;5072086;28;20040;-46